Time;durP1;ratioP1;P1;durP2;ratioP2;P2;SDS_P1;SDS_P2;PMS_P1;PMS_P2;Temp;Humidity;BMP_temperature;BMP_pressure;BME280_temperature;BME280_humidity;BME280_pressure;Samples;Min_cycle;Max_cycle;Signal;HPM_P1;HPM_P2
2023/01/22 00:00:20;;;;;;;27.35;15.38;;;2.40;99.90;;;;;;4091250;29;20118;-66
2023/01/22 00:02:21;;;;;;;26.52;15.32;;;2.40;99.90;;;;;;4107248;28;20038;-66
2023/01/22 00:04:21;;;;;;;30.73;16.02;;;2.40;99.90;;;;;;4111507;28;20035;-66
2023/01/22 00:06:22;;;;;;;29.50;15.88;;;2.40;99.90;;;;;;4119283;28;20038;-66
2023/01/22 00:08:23;;;;;;;27.95;15.75;;;2.40;99.90;;;;;;4112462;28;20035;-66
2023/01/22 00:10:23;;;;;;;26.20;15.48;;;2.40;99.90;;;;;;4115538;28;20390;-66
2023/01/22 00:12:24;;;;;;;26.90;15.48;;;2.40;99.90;;;;;;4125933;28;20026;-66
2023/01/22 00:14:24;;;;;;;28.30;15.73;;;2.40;99.90;;;;;;4124058;28;20042;-66
2023/01/22 00:16:25;;;;;;;28.10;16.45;;;2.40;99.90;;;;;;4125705;28;20038;-66
2023/01/22 00:18:26;;;;;;;27.15;16.35;;;2.40;99.90;;;;;;4116337;28;20053;-66
2023/01/22 00:20:26;;;;;;;28.92;16.48;;;2.40;99.90;;;;;;4115621;28;20049;-66
2023/01/22 00:22:27;;;;;;;26.35;16.23;;;2.40;99.90;;;;;;4127457;28;20130;-66
2023/01/22 00:24:27;;;;;;;26.08;15.18;;;2.50;99.90;;;;;;4123067;28;20038;-65
2023/01/22 00:26:28;;;;;;;26.92;15.73;;;2.50;99.90;;;;;;4124330;28;20413;-67
2023/01/22 00:28:30;;;;;;;28.98;16.15;;;2.50;99.90;;;;;;4113958;28;20038;-66
2023/01/22 00:30:30;;;;;;;27.13;16.30;;;2.50;99.90;;;;;;4111259;28;20109;-66
2023/01/22 00:32:31;;;;;;;28.33;16.42;;;2.50;99.90;;;;;;4118475;28;20058;-66
2023/01/22 00:34:32;;;;;;;26.35;15.20;;;2.50;99.90;;;;;;4111850;28;20411;-66
2023/01/22 00:36:32;;;;;;;30.23;16.05;;;2.50;99.90;;;;;;4123374;28;20470;-66
2023/01/22 00:38:33;;;;;;;31.98;17.67;;;2.50;99.90;;;;;;4112780;28;20835;-66
2023/01/22 00:40:34;;;;;;;29.98;17.23;;;2.50;99.90;;;;;;4114042;28;20035;-66
2023/01/22 00:42:34;;;;;;;27.17;16.05;;;2.50;99.90;;;;;;4122999;28;20541;-67
2023/01/22 00:44:35;;;;;;;28.75;16.55;;;2.50;99.90;;;;;;4115327;28;20031;-66
2023/01/22 00:46:35;;;;;;;28.90;17.13;;;2.50;99.90;;;;;;4127089;28;20037;-66
2023/01/22 00:48:37;;;;;;;31.00;18.35;;;2.50;99.90;;;;;;4117407;28;20042;-65
2023/01/22 00:50:37;;;;;;;38.47;22.08;;;2.50;99.90;;;;;;4114077;28;20031;-66
2023/01/22 00:52:38;;;;;;;34.17;21.48;;;2.50;99.90;;;;;;4128020;28;20465;-66
2023/01/22 00:54:38;;;;;;;38.42;21.23;;;2.50;99.90;;;;;;4116388;28;20394;-66
2023/01/22 00:56:39;;;;;;;36.20;19.65;;;2.50;99.90;;;;;;4127632;28;20034;-66
2023/01/22 00:58:40;;;;;;;31.73;18.42;;;2.50;99.90;;;;;;4116679;28;20078;-66
2023/01/22 01:00:40;;;;;;;30.98;17.98;;;2.50;99.90;;;;;;4116413;28;20031;-66
2023/01/22 01:05:00;;;;;;;28.15;16.27;;;2.50;99.90;;;;;;4114462;28;20074;-66
2023/01/22 01:07:01;;;;;;;28.42;15.90;;;2.50;99.90;;;;;;4127965;28;20039;-66
2023/01/22 01:09:01;;;;;;;28.50;15.88;;;2.50;99.90;;;;;;4110549;28;20190;-66
2023/01/22 01:11:10;;;;;;;29.70;16.55;;;2.50;99.90;;;;;;4108409;28;20035;-66
2023/01/22 01:13:11;;;;;;;28.58;16.88;;;2.50;99.90;;;;;;4114638;28;20422;-67
2023/01/22 01:15:12;;;;;;;29.65;16.95;;;2.50;99.90;;;;;;4104939;28;20036;-67
2023/01/22 01:17:12;;;;;;;33.03;17.80;;;2.50;99.90;;;;;;4127873;28;20058;-66
2023/01/22 01:19:14;;;;;;;26.60;15.50;;;2.60;99.90;;;;;;4110706;28;20047;-66
2023/01/22 01:21:16;;;;;;;29.00;16.77;;;2.50;99.90;;;;;;4125064;28;20126;-66
2023/01/22 01:23:16;;;;;;;25.40;15.32;;;2.50;99.90;;;;;;4125553;28;20039;-66
2023/01/22 01:25:17;;;;;;;24.65;14.98;;;2.60;99.90;;;;;;4125277;28;20044;-66
2023/01/22 01:27:17;;;;;;;27.45;16.23;;;2.60;99.90;;;;;;4127000;28;20038;-66
2023/01/22 01:29:18;;;;;;;29.13;16.77;;;2.60;99.90;;;;;;4109242;28;20039;-66
2023/01/22 01:31:21;;;;;;;29.55;17.17;;;2.60;99.90;;;;;;4123813;28;21686;-66
2023/01/22 01:33:22;;;;;;;28.85;16.60;;;2.60;99.90;;;;;;4128308;28;20038;-66
2023/01/22 01:35:22;;;;;;;27.75;16.10;;;2.60;99.90;;;;;;4128323;28;20041;-66
2023/01/22 01:37:23;;;;;;;28.23;16.77;;;2.60;99.90;;;;;;4124901;28;20035;-66
2023/01/22 01:39:23;;;;;;;27.20;16.58;;;2.50;99.90;;;;;;4109347;28;20467;-66
2023/01/22 01:41:25;;;;;;;27.17;16.20;;;2.60;99.90;;;;;;4124721;28;20031;-66
2023/01/22 01:43:27;;;;;;;29.63;16.75;;;2.50;99.90;;;;;;4125854;28;20046;-66
2023/01/22 01:45:32;;;;;;;27.88;17.00;;;2.60;99.90;;;;;;4113842;28;20070;-66
2023/01/22 01:47:34;;;;;;;28.35;16.67;;;2.60;99.90;;;;;;4107258;28;20485;-66
2023/01/22 01:49:50;;;;;;;28.23;17.10;;;2.60;99.90;;;;;;4119044;28;20062;-66
2023/01/22 01:51:54;;;;;;;28.05;14.55;;;2.60;99.90;;;;;;4118716;28;20031;-66
2023/01/22 01:53:56;;;;;;;27.45;15.68;;;2.60;99.90;;;;;;4121716;28;20051;-66
2023/01/22 01:55:58;;;;;;;31.70;17.58;;;2.60;99.90;;;;;;4120796;28;20390;-66
2023/01/22 01:58:04;;;;;;;26.95;16.27;;;2.60;99.90;;;;;;4114353;28;20031;-66
2023/01/22 02:00:11;;;;;;;29.00;17.55;;;2.60;99.90;;;;;;4093734;28;20126;-67
2023/01/22 02:02:12;;;;;;;27.45;15.70;;;2.50;99.90;;;;;;4122895;28;20042;-66
2023/01/22 02:04:13;;;;;;;26.23;16.15;;;2.50;99.90;;;;;;4117753;28;20372;-66
2023/01/22 02:06:16;;;;;;;30.42;18.02;;;2.50;99.90;;;;;;4109833;28;20081;-66
2023/01/22 02:08:16;;;;;;;27.40;15.65;;;2.50;99.90;;;;;;4118764;28;20096;-66
2023/01/22 02:10:17;;;;;;;27.95;16.45;;;2.50;99.90;;;;;;4118666;28;20038;-66
2023/01/22 02:12:18;;;;;;;23.63;14.13;;;2.50;99.90;;;;;;4129334;28;20039;-66
2023/01/22 02:14:32;;;;;;;27.90;16.85;;;2.50;99.90;;;;;;4128322;28;20046;-66
2023/01/22 02:16:32;;;;;;;26.08;16.38;;;2.60;99.90;;;;;;4127264;28;20411;-67
2023/01/22 02:18:33;;;;;;;29.83;18.58;;;2.50;99.90;;;;;;4124775;28;20077;-67
2023/01/22 02:20:39;;;;;;;27.92;16.50;;;2.50;99.90;;;;;;4126173;28;20527;-67
2023/01/22 02:22:39;;;;;;;24.85;15.30;;;2.60;99.90;;;;;;4129625;28;20042;-67
2023/01/22 02:24:40;;;;;;;31.63;18.35;;;2.60;99.90;;;;;;4104243;28;20490;-66
2023/01/22 02:26:43;;;;;;;28.75;16.83;;;2.50;99.90;;;;;;4127079;28;20045;-67
2023/01/22 02:28:43;;;;;;;26.02;15.98;;;2.50;99.90;;;;;;4124560;28;20047;-66
2023/01/22 02:30:45;;;;;;;27.30;16.88;;;2.50;99.90;;;;;;4127187;28;20035;-67
2023/01/22 02:32:45;;;;;;;26.50;16.15;;;2.50;99.90;;;;;;4128521;28;20104;-67
2023/01/22 02:34:46;;;;;;;27.35;15.55;;;2.50;99.90;;;;;;4122031;28;20517;-66
2023/01/22 02:36:46;;;;;;;24.33;15.90;;;2.50;99.90;;;;;;4125123;28;20061;-67
2023/01/22 02:38:47;;;;;;;27.27;16.17;;;2.50;99.90;;;;;;4118697;28;20042;-66
2023/01/22 02:40:48;;;;;;;30.42;16.38;;;2.50;99.90;;;;;;4129791;28;20034;-66
2023/01/22 02:42:48;;;;;;;31.90;17.52;;;2.60;99.90;;;;;;4127219;28;20038;-67
2023/01/22 02:44:51;;;;;;;29.35;16.83;;;2.60;99.90;;;;;;4121003;28;20026;-67
2023/01/22 02:46:52;;;;;;;28.85;17.58;;;2.50;99.90;;;;;;4113492;28;20043;-68
2023/01/22 02:48:53;;;;;;;28.40;16.70;;;2.50;99.90;;;;;;4117739;28;20138;-67
2023/01/22 02:50:54;;;;;;;30.08;17.38;;;2.50;99.90;;;;;;4113276;28;20090;-67
2023/01/22 02:52:54;;;;;;;29.58;16.92;;;2.50;99.90;;;;;;4129135;28;20125;-67
2023/01/22 02:54:55;;;;;;;27.90;15.75;;;2.50;99.90;;;;;;4123820;28;20466;-68
2023/01/22 02:56:56;;;;;;;25.70;16.30;;;2.50;99.90;;;;;;4129955;28;20496;-68
2023/01/22 02:58:58;;;;;;;31.42;18.52;;;2.50;99.90;;;;;;4122697;28;20049;-67
2023/01/22 03:01:17;;;;;;;25.80;16.25;;;2.50;99.90;;;;;;4127596;28;20030;-67
2023/01/22 03:03:18;;;;;;;27.55;15.88;;;2.40;99.90;;;;;;4127800;28;20486;-67
2023/01/22 03:05:18;;;;;;;28.30;17.05;;;2.50;99.90;;;;;;4123638;28;20062;-68
2023/01/22 03:07:19;;;;;;;25.70;16.13;;;2.40;99.90;;;;;;4117509;28;20372;-67
2023/01/22 03:09:20;;;;;;;21.75;14.10;;;2.40;99.90;;;;;;4112817;28;20039;-68
2023/01/22 03:11:21;;;;;;;26.13;16.05;;;2.50;99.90;;;;;;4123054;28;20042;-67
2023/01/22 03:22:38;;;;;;;27.52;16.70;;;2.50;99.90;;;;;;4128108;28;20379;-68
2023/01/22 03:24:39;;;;;;;26.70;16.25;;;2.40;99.90;;;;;;4124353;28;20045;-68
2023/01/22 03:26:40;;;;;;;26.65;15.95;;;2.50;99.90;;;;;;4124168;28;20046;-68
2023/01/22 03:28:41;;;;;;;30.98;17.75;;;2.40;99.90;;;;;;4112554;28;20042;-68
2023/01/22 03:30:41;;;;;;;22.35;14.35;;;2.40;99.90;;;;;;4127204;28;20030;-68
2023/01/22 03:32:42;;;;;;;22.67;14.45;;;2.30;99.90;;;;;;4118365;28;20038;-68
2023/01/22 03:37:39;;;;;;;26.30;15.60;;;2.30;99.90;;;;;;4120059;28;20350;-67
2023/01/22 03:39:40;;;;;;;26.20;16.05;;;2.40;99.90;;;;;;4118326;28;20052;-67
2023/01/22 03:41:40;;;;;;;24.55;14.98;;;2.30;99.90;;;;;;4126316;28;20041;-67
2023/01/22 03:43:41;;;;;;;27.30;16.25;;;2.30;99.90;;;;;;4122553;28;20039;-68
2023/01/22 03:45:42;;;;;;;27.55;15.68;;;2.40;99.90;;;;;;4110532;28;20485;-68
2023/01/22 03:47:42;;;;;;;25.83;14.88;;;2.30;99.90;;;;;;4121149;28;20124;-67
2023/01/22 03:49:43;;;;;;;22.95;14.90;;;2.30;99.90;;;;;;4123455;28;20038;-68
2023/01/22 03:51:43;;;;;;;25.27;15.45;;;2.40;99.90;;;;;;4125531;28;20038;-67
2023/01/22 03:53:45;;;;;;;22.92;14.35;;;2.40;99.90;;;;;;4123773;28;20492;-68
2023/01/22 03:55:45;;;;;;;22.60;13.45;;;2.40;99.90;;;;;;4123405;28;20026;-67
2023/01/22 03:57:46;;;;;;;25.88;14.65;;;2.50;99.90;;;;;;4119346;28;20114;-67
2023/01/22 03:59:47;;;;;;;22.67;14.25;;;2.50;99.90;;;;;;4124227;28;20038;-67
2023/01/22 04:01:49;;;;;;;22.55;13.88;;;2.50;99.90;;;;;;4106253;28;20350;-68
2023/01/22 04:03:50;;;;;;;;;;;2.50;99.90;;;;;;4120093;28;20034;-68
2023/01/22 04:05:51;;;;;;;21.88;13.07;;;2.50;99.90;;;;;;4126413;28;19965;-68
2023/01/22 04:07:51;;;;;;;20.83;13.27;;;2.50;99.90;;;;;;4120735;28;20477;-68
2023/01/22 04:09:52;;;;;;;23.05;14.07;;;2.50;99.90;;;;;;4121384;28;20428;-68
2023/01/22 04:11:52;;;;;;;21.58;13.60;;;2.60;99.90;;;;;;4121412;28;20501;-68
2023/01/22 04:13:54;;;;;;;19.83;12.90;;;2.60;99.90;;;;;;4109983;28;20050;-68
2023/01/22 04:15:55;;;;;;;20.88;13.52;;;2.50;99.90;;;;;;4126318;28;20030;-68
2023/01/22 04:17:55;;;;;;;21.88;13.07;;;2.60;99.90;;;;;;4131768;28;20444;-68
2023/01/22 04:19:56;;;;;;;19.55;12.30;;;2.60;99.90;;;;;;4130177;28;20038;-68
2023/01/22 04:21:57;;;;;;;22.73;13.85;;;2.60;99.90;;;;;;4126456;28;20084;-68
2023/01/22 04:23:57;;;;;;;20.77;13.32;;;2.60;99.90;;;;;;4121133;28;20030;-68
2023/01/22 04:25:58;;;;;;;20.17;13.20;;;2.50;99.90;;;;;;4114095;28;20437;-68
2023/01/22 04:27:59;;;;;;;21.27;13.30;;;2.60;99.90;;;;;;4121674;28;20114;-68
2023/01/22 04:29:59;;;;;;;20.80;12.70;;;2.60;99.90;;;;;;4123467;28;20042;-68
2023/01/22 04:32:00;;;;;;;21.02;13.05;;;2.60;99.90;;;;;;4126560;28;21898;-68
2023/01/22 04:34:01;;;;;;;20.30;12.32;;;2.60;99.90;;;;;;4121858;28;20453;-68
2023/01/22 04:36:01;;;;;;;18.35;11.63;;;2.60;99.90;;;;;;4129952;28;20382;-68
2023/01/22 04:38:04;;;;;;;21.08;12.13;;;2.60;99.90;;;;;;4117363;28;20097;-68
2023/01/22 04:40:05;;;;;;;18.95;12.20;;;2.70;99.90;;;;;;4129766;28;20038;-70
2023/01/22 04:42:06;;;;;;;20.02;12.65;;;2.60;99.90;;;;;;4125926;28;20560;-68
2023/01/22 04:44:06;;;;;;;19.13;12.40;;;2.60;99.90;;;;;;4119824;28;20061;-67
2023/01/22 04:46:07;;;;;;;20.33;12.13;;;2.70;99.90;;;;;;4123889;28;20058;-67
2023/01/22 04:48:08;;;;;;;18.67;11.90;;;2.70;99.90;;;;;;4127786;28;20116;-67
2023/01/22 04:50:16;;;;;;;22.42;12.02;;;2.60;99.90;;;;;;4129687;28;20035;-67
2023/01/22 04:52:17;;;;;;;19.33;12.07;;;2.60;99.90;;;;;;4126533;28;20045;-67
2023/01/22 04:54:18;;;;;;;16.15;10.88;;;2.70;99.90;;;;;;4125487;28;20126;-67
2023/01/22 04:56:19;;;;;;;18.30;11.88;;;2.70;99.90;;;;;;4127977;28;20049;-68
2023/01/22 04:58:19;;;;;;;15.15;10.27;;;2.70;99.90;;;;;;4124664;28;20371;-68
2023/01/22 05:00:20;;;;;;;19.63;11.45;;;2.70;99.90;;;;;;4122459;28;20053;-68
2023/01/22 05:02:21;;;;;;;17.40;10.52;;;2.70;99.90;;;;;;4123772;28;20386;-67
2023/01/22 05:04:22;;;;;;;18.83;10.95;;;2.70;99.90;;;;;;4120803;28;20085;-68
2023/01/22 05:06:23;;;;;;;17.63;11.60;;;2.60;99.90;;;;;;4104494;28;20437;-68
2023/01/22 05:08:23;;;;;;;18.73;11.02;;;2.70;99.90;;;;;;4123279;28;20113;-68
2023/01/22 05:10:24;;;;;;;19.20;11.38;;;2.70;99.90;;;;;;4121684;28;20061;-68
2023/01/22 05:12:25;;;;;;;18.48;11.60;;;2.70;99.90;;;;;;4116912;28;20061;-68
2023/01/22 05:14:25;;;;;;;17.05;11.55;;;2.70;99.90;;;;;;4122555;28;20537;-67
2023/01/22 05:16:26;;;;;;;15.50;10.02;;;2.70;99.90;;;;;;4127609;28;20038;-68
2023/01/22 05:18:27;;;;;;;16.92;11.32;;;2.70;99.90;;;;;;4116200;28;20030;-68
2023/01/22 05:20:27;;;;;;;15.75;10.43;;;2.60;99.90;;;;;;4125140;28;20030;-68
2023/01/22 05:22:28;;;;;;;17.40;11.35;;;2.60;99.90;;;;;;4129782;28;20379;-67
2023/01/22 05:24:28;;;;;;;18.63;11.75;;;2.70;99.90;;;;;;4111718;28;20050;-68
2023/01/22 05:26:29;;;;;;;17.90;11.57;;;2.70;99.90;;;;;;4122659;28;20038;-68
2023/01/22 05:28:29;;;;;;;17.65;10.40;;;2.70;99.90;;;;;;4122826;28;20061;-67
2023/01/22 05:30:30;;;;;;;18.30;11.20;;;2.70;99.90;;;;;;4123873;28;20039;-68
2023/01/22 05:32:31;;;;;;;19.17;9.95;;;2.70;99.90;;;;;;4118091;28;20042;-68
2023/01/22 05:34:32;;;;;;;17.88;10.70;;;2.70;99.90;;;;;;4110201;28;20078;-68
2023/01/22 05:36:32;;;;;;;18.02;11.93;;;2.70;99.90;;;;;;4100925;28;20417;-67
2023/01/22 05:38:33;;;;;;;16.45;10.15;;;2.70;99.90;;;;;;4120801;28;20120;-68
2023/01/22 05:40:34;;;;;;;18.90;11.10;;;2.70;99.90;;;;;;4115492;28;20042;-68
2023/01/22 05:42:34;;;;;;;15.27;10.30;;;2.60;99.90;;;;;;4121068;28;20394;-68
2023/01/22 05:44:35;;;;;;;17.63;11.48;;;2.70;99.90;;;;;;4122329;28;20043;-68
2023/01/22 05:46:35;;;;;;;15.30;10.50;;;2.70;99.90;;;;;;4123987;28;20045;-68
2023/01/22 05:48:36;;;;;;;16.05;9.55;;;2.70;99.90;;;;;;4121952;28;20042;-68
2023/01/22 05:50:38;;;;;;;19.52;11.77;;;2.70;99.90;;;;;;4095449;28;20095;-68
2023/01/22 05:52:38;;;;;;;17.73;10.95;;;2.70;99.90;;;;;;4126590;28;20039;-67
2023/01/22 06:06:37;;;;;;;16.00;10.68;;;2.70;99.90;;;;;;4102582;28;20499;-69
2023/01/22 06:08:38;;;;;;;18.40;11.27;;;2.60;99.90;;;;;;4120818;28;20072;-69
2023/01/22 06:10:39;;;;;;;18.52;11.15;;;2.60;99.90;;;;;;4103351;28;20030;-69
2023/01/22 06:12:39;;;;;;;18.20;11.27;;;2.70;99.90;;;;;;4105933;28;20122;-69
2023/01/22 06:14:40;;;;;;;18.05;11.57;;;2.70;99.90;;;;;;4117404;28;20043;-69
2023/01/22 06:16:43;;;;;;;16.08;10.20;;;2.70;99.90;;;;;;4088374;28;20035;-68
2023/01/22 06:18:44;;;;;;;15.15;9.82;;;2.60;99.90;;;;;;4118107;28;20039;-69
2023/01/22 06:20:47;;;;;;;15.65;9.90;;;2.70;99.90;;;;;;4094101;28;20131;-69
2023/01/22 06:22:50;;;;;;;14.23;9.68;;;2.70;99.90;;;;;;4104595;28;20035;-69
2023/01/22 06:24:59;;;;;;;16.77;10.95;;;2.60;99.90;;;;;;4105371;28;20372;-69
2023/01/22 06:26:59;;;;;;;16.48;10.25;;;2.60;99.90;;;;;;4100329;28;20042;-69
2023/01/22 06:29:00;;;;;;;14.68;10.15;;;2.60;99.90;;;;;;4125866;28;20149;-69
2023/01/22 06:31:06;;;;;;;17.38;10.20;;;2.60;99.90;;;;;;4116996;28;20577;-69
2023/01/22 06:33:09;;;;;;;15.98;10.05;;;2.60;99.90;;;;;;4108150;28;20054;-69
2023/01/22 06:35:13;;;;;;;15.30;9.88;;;2.60;99.90;;;;;;4093634;28;20030;-69
2023/01/22 06:37:13;;;;;;;16.38;10.63;;;2.60;99.90;;;;;;4102654;28;20039;-69
2023/01/22 06:39:17;;;;;;;14.93;9.68;;;2.60;99.90;;;;;;4112046;28;20026;-69
2023/01/22 06:41:18;;;;;;;14.80;9.80;;;2.60;99.90;;;;;;4081560;28;20039;-69
2023/01/22 06:43:19;;;;;;;14.05;9.43;;;2.60;99.90;;;;;;4073293;28;20030;-69
2023/01/22 06:45:19;;;;;;;15.38;10.43;;;2.60;99.90;;;;;;4117192;28;20469;-69
2023/01/22 06:47:20;;;;;;;17.73;10.43;;;2.60;99.90;;;;;;4098601;28;20042;-69
2023/01/22 06:49:21;;;;;;;14.98;9.82;;;2.60;99.90;;;;;;4111785;28;20487;-69
2023/01/22 06:51:21;;;;;;;14.18;9.52;;;2.60;99.90;;;;;;4114074;28;20403;-68
2023/01/22 06:53:22;;;;;;;14.85;9.05;;;2.60;99.90;;;;;;4109780;28;20380;-70
2023/01/22 06:55:26;;;;;;;14.88;9.82;;;2.70;99.90;;;;;;4084661;28;20050;-70
2023/01/22 06:57:30;;;;;;;17.33;9.95;;;2.60;99.90;;;;;;4112839;28;20475;-70
2023/01/22 06:59:31;;;;;;;14.60;9.80;;;2.70;99.90;;;;;;4090409;28;20047;-70
2023/01/22 07:01:31;;;;;;;16.58;10.57;;;2.60;99.90;;;;;;4099795;28;20491;-70
2023/01/22 07:03:32;;;;;;;16.63;10.07;;;2.60;99.90;;;;;;4118271;28;20047;-70
2023/01/22 07:05:34;;;;;;;13.10;9.48;;;2.60;99.90;;;;;;4119400;28;20038;-70
2023/01/22 07:07:34;;;;;;;16.85;9.60;;;2.60;99.90;;;;;;4106694;28;20058;-70
2023/01/22 07:09:35;;;;;;;13.80;9.20;;;2.60;99.90;;;;;;4108765;28;20038;-69
2023/01/22 07:11:35;;;;;;;14.25;9.88;;;2.60;99.90;;;;;;4074272;29;20039;-70
2023/01/22 07:13:36;;;;;;;15.57;9.43;;;2.60;99.90;;;;;;4093620;28;20443;-70
2023/01/22 07:15:36;;;;;;;13.45;8.60;;;2.60;99.90;;;;;;4107935;28;20053;-69
2023/01/22 07:17:37;;;;;;;14.98;9.27;;;2.60;99.90;;;;;;4106351;28;20031;-70
2023/01/22 07:19:38;;;;;;;14.32;9.57;;;2.60;99.90;;;;;;4109238;28;20065;-70
2023/01/22 07:21:38;;;;;;;14.20;9.73;;;2.60;99.90;;;;;;4101162;28;20031;-70
2023/01/22 07:23:40;;;;;;;13.68;8.93;;;2.60;99.90;;;;;;4106997;28;20038;-70
2023/01/22 07:25:43;;;;;;;13.73;9.43;;;2.60;99.90;;;;;;4090375;28;20387;-70
2023/01/22 07:27:44;;;;;;;;;;;2.60;99.90;;;;;;4111074;28;20037;-70
2023/01/22 07:29:46;;;;;;;13.23;8.60;;;2.60;99.90;;;;;;4103121;28;19997;-70
2023/01/22 07:31:47;;;;;;;15.88;9.20;;;2.60;99.90;;;;;;4071824;29;20028;-69
2023/01/22 07:33:47;;;;;;;16.70;9.48;;;2.60;99.90;;;;;;4106643;28;20073;-70
2023/01/22 07:35:55;;;;;;;12.85;9.43;;;2.60;99.90;;;;;;4101703;28;20032;-71
2023/01/22 07:37:57;;;;;;;15.50;9.20;;;2.60;99.90;;;;;;4108926;28;20110;-70
2023/01/22 07:39:58;;;;;;;12.48;8.45;;;2.60;99.90;;;;;;4092850;28;20042;-70
2023/01/22 07:42:00;;;;;;;14.40;9.20;;;2.60;99.90;;;;;;4107157;28;20065;-70
2023/01/22 07:44:02;;;;;;;14.48;8.77;;;2.50;99.90;;;;;;4096631;28;20488;-69
2023/01/22 07:46:04;;;;;;;15.73;9.30;;;2.60;99.90;;;;;;4104429;28;20031;-71
2023/01/22 07:48:09;;;;;;;15.60;10.10;;;2.60;99.90;;;;;;4088481;28;20508;-69
2023/01/22 07:50:10;;;;;;;14.75;9.73;;;2.60;99.90;;;;;;4090934;28;20114;-69
2023/01/22 07:52:14;;;;;;;13.05;8.13;;;2.60;99.90;;;;;;4105392;28;20440;-69
2023/01/22 07:54:15;;;;;;;13.77;9.05;;;2.60;99.90;;;;;;4089597;28;20035;-69
2023/01/22 07:56:17;;;;;;;13.82;8.75;;;2.60;99.90;;;;;;4107184;28;20085;-70
2023/01/22 07:58:18;;;;;;;12.48;9.13;;;2.60;99.90;;;;;;4089319;28;20063;-69
2023/01/22 08:00:22;;;;;;;14.45;8.98;;;2.60;99.90;;;;;;4077367;28;20432;-69
2023/01/22 08:02:23;;;;;;;13.95;8.85;;;2.60;99.90;;;;;;4093463;28;20111;-68
2023/01/22 08:04:24;;;;;;;12.70;9.13;;;2.60;99.90;;;;;;4090130;28;20493;-69
2023/01/22 08:06:24;;;;;;;14.45;9.32;;;2.70;99.90;;;;;;4102540;23;20095;-69
2023/01/22 08:08:25;;;;;;;18.65;10.35;;;2.60;99.90;;;;;;4090188;28;20387;-69
2023/01/22 08:10:26;;;;;;;15.60;9.18;;;2.60;99.90;;;;;;4085541;28;20075;-69
2023/01/22 08:12:30;;;;;;;14.02;10.15;;;2.60;99.90;;;;;;4073916;28;20059;-69
2023/01/22 08:14:31;;;;;;;15.25;10.20;;;2.60;99.90;;;;;;4076096;28;20040;-69
2023/01/22 08:16:32;;;;;;;11.65;8.70;;;2.60;99.90;;;;;;4092033;28;20046;-69
2023/01/22 08:18:33;;;;;;;13.25;9.60;;;2.60;99.90;;;;;;4073835;29;20267;-69
2023/01/22 08:20:37;;;;;;;12.00;8.93;;;2.60;99.90;;;;;;4088290;28;20036;-70
2023/01/22 08:22:42;;;;;;;13.90;9.50;;;2.60;99.90;;;;;;4070655;28;20039;-69
2023/01/22 08:24:56;;;;;;;13.55;9.45;;;2.60;99.90;;;;;;4073421;28;20039;-69
2023/01/22 08:27:00;;;;;;;13.93;9.77;;;2.70;99.90;;;;;;4059686;29;20032;-70
2023/01/22 08:29:01;;;;;;;15.63;10.10;;;2.70;99.90;;;;;;4065971;29;20518;-70
2023/01/22 08:31:05;;;;;;;14.52;9.55;;;2.70;99.90;;;;;;4088804;28;20047;-70
2023/01/22 08:33:15;;;;;;;13.05;9.88;;;2.80;99.90;;;;;;4088955;28;20426;-69
2023/01/22 08:35:17;;;;;;;12.68;9.35;;;2.70;99.90;;;;;;4074322;28;20044;-70
2023/01/22 08:37:22;;;;;;;14.63;9.25;;;2.80;99.90;;;;;;4090438;28;20154;-68
2023/01/22 08:39:22;;;;;;;14.10;10.05;;;2.80;99.90;;;;;;4079784;28;20078;-69
2023/01/22 08:41:23;;;;;;;14.98;9.70;;;2.80;99.90;;;;;;4074126;29;20148;-68
2023/01/22 08:43:24;;;;;;;13.88;9.82;;;2.80;99.90;;;;;;4070527;28;20501;-69
2023/01/22 08:45:25;;;;;;;14.13;10.50;;;2.80;99.90;;;;;;4073960;29;21412;-68
2023/01/22 08:47:26;;;;;;;12.90;9.93;;;2.80;99.90;;;;;;4077712;29;20438;-68
2023/01/22 08:49:29;;;;;;;17.30;10.35;;;2.80;99.90;;;;;;4086903;28;20036;-68
2023/01/22 08:51:29;;;;;;;13.80;9.50;;;2.80;99.90;;;;;;4091883;28;20039;-68
2023/01/22 08:53:30;;;;;;;13.57;9.43;;;2.70;99.90;;;;;;4091528;28;20043;-68
2023/01/22 08:55:31;;;;;;;15.95;10.25;;;2.80;99.90;;;;;;4091079;28;20039;-69
2023/01/22 08:57:31;;;;;;;14.73;10.13;;;2.70;99.90;;;;;;4093794;28;20039;-69
2023/01/22 08:59:38;;;;;;;14.25;10.13;;;2.70;99.90;;;;;;4074122;29;20075;-69
2023/01/22 09:01:38;;;;;;;14.48;9.73;;;2.70;99.90;;;;;;4084499;28;20057;-68
2023/01/22 09:03:39;;;;;;;16.92;9.48;;;2.70;99.90;;;;;;4097150;28;20039;-68
2023/01/22 09:05:39;;;;;;;13.63;8.55;;;2.80;99.90;;;;;;4084504;28;20451;-69
2023/01/22 09:07:40;;;;;;;16.30;9.63;;;2.80;99.90;;;;;;4098123;28;20422;-69
2023/01/22 09:09:41;;;;;;;11.52;8.75;;;2.80;99.90;;;;;;4096040;28;20423;-69
2023/01/22 09:11:41;;;;;;;13.20;9.60;;;2.80;99.90;;;;;;4096186;28;20039;-69
2023/01/22 09:13:42;;;;;;;14.05;8.80;;;2.80;99.90;;;;;;4095860;28;20116;-69
2023/01/22 09:15:43;;;;;;;17.00;10.40;;;2.80;99.90;;;;;;4094914;28;20039;-69
2023/01/22 09:17:43;;;;;;;15.35;9.38;;;2.80;99.90;;;;;;4096097;28;20445;-68
2023/01/22 09:19:44;;;;;;;12.07;8.75;;;2.80;99.90;;;;;;4094856;28;20474;-69
2023/01/22 09:21:44;;;;;;;13.45;8.95;;;2.80;99.90;;;;;;4093872;28;20398;-69
2023/01/22 09:23:45;;;;;;;13.63;9.15;;;2.80;99.90;;;;;;4093571;28;20049;-70
2023/01/22 09:25:45;;;;;;;12.30;8.80;;;2.80;99.90;;;;;;4095224;28;20035;-69
2023/01/22 09:27:46;;;;;;;12.68;9.05;;;2.80;99.90;;;;;;4079098;29;20070;-69
2023/01/22 09:29:47;;;;;;;14.48;9.48;;;2.80;99.90;;;;;;4095859;28;20035;-69
2023/01/22 09:31:49;;;;;;;13.57;8.88;;;2.80;99.90;;;;;;4094624;28;20046;-70
2023/01/22 09:33:50;;;;;;;12.95;8.82;;;2.80;99.90;;;;;;4095947;28;22707;-70
2023/01/22 09:35:51;;;;;;;14.32;8.93;;;2.80;99.90;;;;;;4094304;28;20047;-69
2023/01/22 09:37:51;;;;;;;12.65;8.38;;;2.80;99.90;;;;;;4095851;28;20042;-69
2023/01/22 09:39:52;;;;;;;12.02;8.52;;;2.90;99.90;;;;;;4093622;28;20035;-69
2023/01/22 09:41:56;;;;;;;12.43;8.88;;;2.90;99.90;;;;;;4094269;28;20471;-68
2023/01/22 09:44:16;;;;;;;12.57;8.30;;;2.90;99.90;;;;;;4094921;28;20434;-68
2023/01/22 09:46:48;;;;;;;14.65;8.85;;;3.00;99.90;;;;;;4094937;28;20043;-69
2023/01/22 09:48:55;;;;;;;13.93;8.18;;;3.00;99.90;;;;;;4089817;28;20035;-69
2023/01/22 09:50:55;;;;;;;11.30;8.35;;;3.00;99.90;;;;;;4093213;28;20102;-68
2023/01/22 09:52:59;;;;;;;12.63;8.18;;;3.00;99.90;;;;;;4092721;28;20473;-69
2023/01/22 09:55:00;;;;;;;10.90;8.35;;;3.00;99.90;;;;;;4089989;28;20040;-69
2023/01/22 09:57:04;;;;;;;12.82;8.15;;;3.00;99.90;;;;;;4093174;28;20470;-70
2023/01/22 09:59:11;;;;;;;10.63;7.82;;;3.00;99.90;;;;;;4077767;29;20039;-70
2023/01/22 10:01:12;;;;;;;12.38;7.80;;;3.00;99.90;;;;;;4089189;28;20059;-69
2023/01/22 10:03:33;;;;;;;11.93;8.15;;;3.00;99.90;;;;;;4094670;28;20312;-69
2023/01/22 10:05:42;;;;;;;11.70;8.48;;;3.00;99.90;;;;;;4092094;29;20043;-69
2023/01/22 10:07:51;;;;;;;13.05;8.95;;;3.10;99.90;;;;;;4093565;28;20042;-69
2023/01/22 10:09:55;;;;;;;12.32;8.25;;;3.10;99.90;;;;;;4092940;28;20039;-68
2023/01/22 10:11:58;;;;;;;11.00;8.00;;;3.10;99.90;;;;;;4089829;28;20706;-69
2023/01/22 10:14:00;;;;;;;11.75;8.05;;;3.10;99.90;;;;;;4092127;28;20446;-68
2023/01/22 10:16:01;;;;;;;;;;;3.20;99.90;;;;;;4083318;28;20050;-69
2023/01/22 10:18:15;;;;;;;12.13;8.40;;;3.20;99.90;;;;;;4094009;28;19917;-69
2023/01/22 10:20:17;;;;;;;11.55;8.52;;;3.10;99.90;;;;;;4095397;28;20036;-69
2023/01/22 10:22:23;;;;;;;13.75;9.30;;;3.10;99.90;;;;;;4097147;28;20031;-69
2023/01/22 10:24:24;;;;;;;14.23;8.43;;;3.10;99.90;;;;;;4096332;28;20037;-69
2023/01/22 10:26:39;;;;;;;11.68;8.57;;;3.10;99.90;;;;;;4093390;28;20050;-69
2023/01/22 10:28:46;;;;;;;11.35;8.27;;;3.10;99.90;;;;;;4097945;28;20035;-69
2023/01/22 10:30:48;;;;;;;10.63;7.72;;;3.10;99.90;;;;;;4093367;28;20035;-69
2023/01/22 10:33:03;;;;;;;12.73;8.60;;;3.20;99.90;;;;;;4094060;28;20039;-69
2023/01/22 10:35:09;;;;;;;11.45;8.30;;;3.20;99.90;;;;;;4096006;28;20047;-69
2023/01/22 10:37:16;;;;;;;11.60;8.80;;;3.20;99.90;;;;;;4092651;28;20097;-69
2023/01/22 10:39:18;;;;;;;13.05;8.57;;;3.20;99.90;;;;;;4083854;29;20046;-70
2023/01/22 10:41:20;;;;;;;12.50;9.18;;;3.20;99.90;;;;;;4075235;28;20035;-69
2023/01/22 10:43:21;;;;;;;11.68;9.00;;;3.20;99.90;;;;;;4094102;28;20482;-69
2023/01/22 10:45:21;;;;;;;12.55;9.10;;;3.20;99.90;;;;;;4106376;28;20066;-69
2023/01/22 10:47:26;;;;;;;13.60;9.25;;;3.20;99.90;;;;;;4099283;28;20507;-69
2023/01/22 10:49:27;;;;;;;12.10;8.38;;;3.20;99.90;;;;;;4079045;29;20478;-69
2023/01/22 10:51:31;;;;;;;14.50;9.43;;;3.20;99.90;;;;;;4101681;28;20027;-69
2023/01/22 10:53:35;;;;;;;11.77;8.40;;;3.20;99.90;;;;;;4095621;28;20043;-69
2023/01/22 10:55:39;;;;;;;13.35;9.18;;;3.20;99.90;;;;;;4080994;29;20073;-69